CONNECT WITH FLYNQY PILOT TRAINING

Newquay Five Day Forecast

This Weather Widget is provided by the Met Office

EGHQ TAF and METAR

METAR

EGHQ 230820Z 21010KT 9999 -DZ SCT006 SCT011 13/12 Q1020

TAF

TAF EGHQ 230804Z 2309/2318 20009KT 9999 SCT010 TEMPO 2309/2315 6000 -RADZ BKN006 PROB30 TEMPO 2309/2311 BKN003